If you wish to contribute or participate in the discussions about articles you are invited to join SKYbrary as a registered user

Asturias

From SKYbrary Wiki
LEAS
Airport
ICAO: LEAS
Summary
Name Asturias
Region Europe
Territory Spain ES.gif
Location Asturias, Spain
Serving
Coordinates 43° 33' 34.4167", -6° 1' 51.663"
Runways
Designator Length Width Surface ROPS
11/29 2200 m7,217.848 ft 45 m147.638 ft ASP yes/yes
METAR
Observation LEAS 241730Z 00000KT 9000 FEW007 SCT011 18/17 Q1019 TEMPO 3000 -DZ BKN005
Station Asturias / Aviles
Date/Time 24 September 2017 17:30:00
Wind direction
Wind speed 00 kts
Lowest cloud amount few clouds
Temperature 18°C
Dew point 17°C
Humidity 93%
QNH 1019 hPa
Weather condition n/a

BS
Tag(s) Bird Strike
WX
Tag(s) Fog

Asturias Airport

ICAO: LEAS IATA: OVD

Description

International airport serving Asturias in northern spain.

Climatology

Temperate Marine climate/Oceanic climate (Köppen climate classification Cfb). Moderately cool summer and comparatively warm winter with a temperature range of only 14°C287.15 K
57.2 °F
516.87 °R
. Prevailing south-westerly winds from the Atlantic Ocean.

Maps

Terrain

Loading map...

Airport Layout

Loading map...


Accidents & Serious Incidents at or in vicinity of LEAS

None on SKYbrary